Mon, 21 Jun 2021 23:07:18 UTC

Information for RPM brotli-1.0.7-11.fc33.ppc64le.rpm

ID21577269
Namebrotli
Version1.0.7
Release11.fc33
Epoch
Archppc64le
SummaryLossless compression algorithm
DescriptionBrotli is a generic-purpose lossless compression algorithm that compresses data using a combination of a modern variant of the LZ77 algorithm, Huffman coding and 2nd order context modeling, with a compression ratio comparable to the best currently available general-purpose compression methods. It is similar in speed with deflate but offers more dense compression.
Build Time2020-05-23 16:39:39 GMT
Size368,261
b74cbcdb2c73ad57425bdcb7bb738953
LicenseMIT
Buildrootf33-python-20856207-1539639
Provides
brotli = 1.0.7-11.fc33
brotli(ppc-64) = 1.0.7-11.fc33
Obsoletes No Obsoletes
Conflicts No Conflicts
Requires
libbrotli(ppc-64) = 1.0.7-11.fc33
libc.so.6()(64bit)
libc.so.6(GLIBC_2.17)(64bit)
libm.so.6()(64bit)
libm.so.6(GLIBC_2.29)(64bit)
rpmlib(CompressedFileNames) <= 3.0.4-1
rpmlib(FileDigests) <= 4.6.0-1
rpmlib(PayloadFilesHavePrefix) <= 4.0-1
rpmlib(PayloadIsZstd) <= 5.4.18-1
rtld(GNU_HASH)
Recommends No Recommends
Suggests No Suggests
Supplements No Supplements
Enhances No Enhances
Files
1 through 4 of 4
Name descending sort Size
/usr/lib/.build-id/0f/cb79010f981654345dfc5c5d15f754e2c9821126
/usr/lib/.build-id/0f0
/usr/lib/.build-id0
/usr/bin/brotli858,800
Component of
Page:
1 through 50 of 10510 >>>
Buildroot ascending sort Created State
f33-python-20865178-1541696 2020-05-24 07:43:59 expired
f33-python-20893372-1547219 2020-05-26 00:47:16 expired
f33-python-20893463-1547219 2020-05-26 00:48:44 expired
f33-python-20893766-1547227 2020-05-26 00:55:35 expired
f33-python-20893908-1547227 2020-05-26 00:57:48 expired
f33-python-20893918-1547227 2020-05-26 00:57:56 expired
f33-python-20893941-1547227 2020-05-26 00:58:08 expired
f33-python-20893969-1547227 2020-05-26 00:58:28 expired
f33-python-20894012-1547227 2020-05-26 00:59:11 expired
f33-python-20903510-1548308 2020-05-26 08:09:09 expired
f33-python-20903949-1548308 2020-05-26 08:17:40 expired
f33-python-20904226-1548351 2020-05-26 08:26:22 expired
f33-python-20906093-1548477 2020-05-26 09:09:48 expired
f33-python-20914697-1550015 2020-05-26 17:12:07 expired
f33-python-20936280-1553604 2020-05-27 22:39:05 expired
f33-python-20938272-1553941 2020-05-28 04:49:16 expired
f33-python-20940653-1555053 2020-05-28 12:55:08 expired
f33-build-20949999-1558210 2020-05-29 10:00:20 expired
f33-build-20950021-1558210 2020-05-29 10:01:28 expired
f33-build-20950297-1558289 2020-05-29 10:52:17 expired
f33-build-20950301-1558289 2020-05-29 10:52:21 expired
f33-build-20950772-1558289 2020-05-29 12:00:22 expired
f33-build-20950889-1558507 2020-05-29 12:14:01 expired
f33-build-20951197-1558516 2020-05-29 12:42:36 expired
f33-build-20951476-1558663 2020-05-29 14:04:12 expired
f33-build-20951507-1558663 2020-05-29 14:09:24 expired
f33-build-20951564-1558663 2020-05-29 14:11:19 expired
f33-build-20951575-1558663 2020-05-29 14:12:15 expired
f33-build-side-24028-20951767-1558947 2020-05-29 15:12:54 expired
f33-build-side-24028-20951784-1558996 2020-05-29 15:17:29 expired
f33-build-side-24028-20951796-1558996 2020-05-29 15:22:59 expired
f33-build-side-24028-20951820-1558996 2020-05-29 15:28:30 expired
f33-build-20951903-1558804 2020-05-29 15:48:03 expired
f33-build-20952036-1559217 2020-05-29 16:20:14 expired
f33-build-20952417-1559237 2020-05-29 17:38:23 expired
f33-build-20952588-1559386 2020-05-29 18:33:34 expired
f33-build-20953253-1559564 2020-05-29 21:37:46 expired
f33-build-20953708-1559564 2020-05-29 23:04:09 expired
f33-build-20953748-1560192 2020-05-29 23:05:21 expired
f33-boost-20953940-1560196 2020-05-29 23:21:14 expired
f33-build-20954399-1560267 2020-05-30 00:30:11 expired
f33-build-20954483-1560280 2020-05-30 00:45:58 expired
f33-build-20954557-1560293 2020-05-30 00:56:49 expired
f33-build-20954578-1560293 2020-05-30 00:57:33 expired
f33-build-20954646-1560308 2020-05-30 01:04:46 expired
f33-build-20954653-1560308 2020-05-30 01:04:53 expired
f33-build-20954753-1560322 2020-05-30 01:16:12 expired
f33-build-20954759-1560322 2020-05-30 01:16:28 expired
f33-build-20954770-1560322 2020-05-30 01:17:01 expired
f33-build-20954938-1560334 2020-05-30 01:45:10 expired